Time;durP1;ratioP1;P1;durP2;ratioP2;P2;SDS_P1;SDS_P2;PMS_P1;PMS_P2;Temp;Humidity;BMP_temperature;BMP_pressure;BME280_temperature;BME280_humidity;BME280_pressure;Samples;Min_cycle;Max_cycle;Signal;HPM_P1;HPM_P2
2022/11/16 00:02:18;;;;;;;7.15;5.07;;;10.70;99.90;;;;;;5145431;27;20081;-82
2022/11/16 00:04:44;;;;;;;6.82;4.68;;;11.30;99.90;;;;;;5127971;27;20038;-83
2022/11/16 00:07:10;;;;;;;8.30;5.70;;;10.90;99.90;;;;;;5145102;27;20042;-83
2022/11/16 00:09:36;;;;;;;6.03;4.95;;;11.00;99.90;;;;;;5147184;27;20035;-83
2022/11/16 00:12:05;;;;;;;7.63;5.47;;;10.70;99.90;;;;;;5145392;27;20481;-82
2022/11/16 00:14:33;;;;;;;10.38;6.38;;;10.70;99.90;;;;;;5128108;27;20042;-83
2022/11/16 00:16:59;;;;;;;7.22;5.35;;;10.90;99.90;;;;;;5146125;27;20594;-82
2022/11/16 00:19:25;;;;;;;6.68;5.70;;;11.20;99.90;;;;;;5145536;27;20129;-82
2022/11/16 00:21:51;;;;;;;11.73;5.97;;;11.20;99.90;;;;;;5124423;28;20039;-82
2022/11/16 00:24:20;;;;;;;10.48;6.05;;;10.90;99.90;;;;;;5122922;28;20050;-82
2022/11/16 00:26:48;;;;;;;9.23;6.43;;;10.70;99.90;;;;;;5126055;27;20045;-81
2022/11/16 00:29:19;;;;;;;10.00;6.45;;;10.70;99.90;;;;;;5124657;27;20088;-81
2022/11/16 00:31:46;;;;;;;8.20;6.13;;;11.00;99.90;;;;;;5123529;28;20050;-81
2022/11/16 00:34:12;;;;;;;7.82;6.15;;;10.70;99.90;;;;;;5125210;27;20498;-81
2022/11/16 00:36:38;;;;;;;12.13;6.07;;;11.70;99.90;;;;;;5125062;27;20036;-80
2022/11/16 00:39:04;;;;;;;9.10;6.20;;;10.80;99.90;;;;;;5128385;27;20058;-81
2022/11/16 00:41:29;;;;;;;7.03;6.00;;;11.10;99.90;;;;;;5126939;27;20460;-80
2022/11/16 00:43:55;;;;;;;8.57;5.95;;;10.80;99.90;;;;;;5129593;27;20068;-81
2022/11/16 00:46:21;;;;;;;8.50;6.32;;;11.20;99.90;;;;;;5128514;27;20043;-80
2022/11/16 00:48:46;;;;;;;11.20;6.47;;;10.80;99.90;;;;;;5127856;27;20059;-81
2022/11/16 00:51:12;;;;;;;9.10;6.65;;;11.20;99.90;;;;;;5109939;27;20662;-81
2022/11/16 00:53:38;;;;;;;12.20;5.75;;;10.80;99.90;;;;;;5127179;27;20062;-81
2022/11/16 00:56:04;;;;;;;8.40;6.15;;;11.50;99.90;;;;;;5129357;27;20070;-80
2022/11/16 00:58:30;;;;;;;9.95;6.68;;;10.70;99.90;;;;;;5126217;27;20050;-81
2022/11/16 01:00:56;;;;;;;11.95;5.90;;;10.80;99.90;;;;;;5128292;27;20043;-81
2022/11/16 01:03:21;;;;;;;8.43;6.85;;;11.00;99.90;;;;;;5128199;27;20054;-81
2022/11/16 01:05:47;;;;;;;7.90;6.35;;;10.80;99.90;;;;;;5129135;27;20057;-81
2022/11/16 01:08:13;;;;;;;10.73;5.90;;;11.00;99.90;;;;;;5126617;27;20409;-81
2022/11/16 01:10:40;;;;;;;8.90;6.07;;;10.80;99.90;;;;;;5128495;27;20031;-81
2022/11/16 01:13:06;;;;;;;9.10;6.07;;;10.80;99.90;;;;;;5127299;27;20508;-81
2022/11/16 01:15:32;;;;;;;8.30;5.85;;;10.80;99.90;;;;;;5126024;27;20043;-81
2022/11/16 01:17:57;;;;;;;8.52;6.63;;;10.80;99.90;;;;;;5128279;27;20084;-81
2022/11/16 01:20:27;;;;;;;8.88;6.13;;;11.10;99.90;;;;;;5125970;27;20436;-81
2022/11/16 01:22:53;;;;;;;9.63;6.90;;;11.80;99.90;;;;;;5141106;27;20039;-82
2022/11/16 01:25:19;;;;;;;12.93;6.47;;;10.80;99.90;;;;;;5148602;27;20465;-81
2022/11/16 01:27:45;;;;;;;10.30;6.20;;;10.80;99.90;;;;;;5148389;27;20038;-82
2022/11/16 01:30:14;;;;;;;9.32;6.90;;;10.80;99.90;;;;;;5149411;27;20115;-81
2022/11/16 01:32:39;;;;;;;7.63;6.05;;;10.80;99.90;;;;;;5147765;27;20038;-81
2022/11/16 01:35:06;;;;;;;9.05;6.13;;;10.90;99.90;;;;;;5149419;27;20039;-81
2022/11/16 01:37:32;;;;;;;10.68;6.70;;;10.80;99.90;;;;;;5147831;27;20046;-81
2022/11/16 01:39:58;;;;;;;12.25;6.50;;;11.30;99.90;;;;;;5149525;27;20128;-81
2022/11/16 01:42:28;;;;;;;9.63;6.38;;;10.80;99.90;;;;;;5148833;27;20388;-81
2022/11/16 01:44:57;;;;;;;8.23;5.60;;;11.40;99.90;;;;;;5148201;27;20510;-81
2022/11/16 01:47:23;;;;;;;10.07;6.18;;;10.80;99.90;;;;;;5149285;27;20130;-81
2022/11/16 01:49:55;;;;;;;10.60;5.97;;;11.20;99.90;;;;;;5147229;27;20594;-80
2022/11/16 01:52:28;;;;;;;9.52;6.13;;;10.80;99.90;;;;;;5130242;27;20081;-80
2022/11/16 01:54:54;;;;;;;;;;;10.80;99.90;;;;;;5129463;27;20397;-80
2022/11/16 01:57:32;;;;;;;8.90;5.82;;;11.50;99.90;;;;;;5129701;27;19926;-80
2022/11/16 01:59:59;;;;;;;9.63;6.70;;;11.40;99.90;;;;;;5148392;27;20042;-80
2022/11/16 02:02:25;;;;;;;11.10;5.68;;;10.90;99.90;;;;;;5128719;27;20558;-80
2022/11/16 02:04:52;;;;;;;9.23;5.68;;;10.80;99.90;;;;;;5149012;27;20118;-80
2022/11/16 02:09:52;;;;;;;8.30;5.32;;;11.60;99.90;;;;;;5147624;27;20442;-80
2022/11/16 02:10:40;;;;;;;8.50;6.00;;;10.90;99.90;;;;;;5129415;27;20118;-80
2022/11/16 02:13:20;;;;;;;11.38;5.57;;;10.90;99.90;;;;;;5148784;27;20403;-79
2022/11/16 02:15:55;;;;;;;7.72;5.47;;;10.90;99.90;;;;;;5111158;27;20052;-80
2022/11/16 02:18:24;;;;;;;7.38;5.78;;;10.90;99.90;;;;;;5148236;27;20078;-81
2022/11/16 02:20:55;;;;;;;9.85;5.70;;;11.00;99.90;;;;;;5147692;27;20043;-81
2022/11/16 02:23:27;;;;;;;7.22;5.43;;;10.90;99.90;;;;;;5147269;27;20108;-81
2022/11/16 02:26:00;;;;;;;13.45;5.65;;;10.90;99.90;;;;;;5147908;27;20061;-80
2022/11/16 02:28:47;;;;;;;12.02;5.80;;;11.10;99.90;;;;;;5146991;27;20039;-80
2022/11/16 02:31:18;;;;;;;8.93;5.80;;;10.90;99.90;;;;;;5148197;27;20053;-80
2022/11/16 02:33:46;;;;;;;8.52;6.05;;;10.90;99.90;;;;;;5128435;27;20129;-80
2022/11/16 02:36:17;;;;;;;7.72;5.75;;;11.10;99.90;;;;;;5129135;27;20167;-80
2022/11/16 02:38:50;;;;;;;8.27;5.50;;;11.70;99.90;;;;;;5148177;27;20136;-80
2022/11/16 02:41:18;;;;;;;;;;;11.20;99.90;;;;;;5147339;27;20397;-80
2022/11/16 02:43:49;;;;;;;7.75;5.10;;;10.90;99.90;;;;;;5148429;27;20293;-80
2022/11/16 02:46:22;;;;;;;7.53;5.47;;;11.30;99.90;;;;;;5146564;27;20043;-80
2022/11/16 02:48:53;;;;;;;6.10;4.53;;;10.90;99.90;;;;;;5128447;27;20050;-80
2022/11/16 02:51:21;;;;;;;8.45;5.45;;;10.90;99.90;;;;;;5147735;27;20389;-80
2022/11/16 02:54:11;;;;;;;7.80;5.60;;;10.90;99.90;;;;;;5146426;27;20099;-79
2022/11/16 02:57:03;;;;;;;15.63;5.25;;;10.90;99.90;;;;;;5147825;27;20034;-79
2022/11/16 02:59:37;;;;;;;7.78;5.50;;;10.90;99.90;;;;;;5134832;27;20054;-80
2022/11/16 03:02:21;;;;;;;7.70;4.93;;;10.90;99.90;;;;;;5145855;27;20047;-79
2022/11/16 03:05:15;;;;;;;8.15;5.30;;;10.90;99.90;;;;;;5111841;27;20053;-80
2022/11/16 03:07:59;;;;;;;7.60;4.97;;;10.90;99.90;;;;;;5146153;27;20630;-79
2022/11/16 03:13:11;;;;;;;7.30;4.95;;;10.90;99.90;;;;;;5147401;27;19963;-79
2022/11/16 03:15:40;;;;;;;8.73;5.03;;;10.90;99.90;;;;;;5127489;27;20065;-79
2022/11/16 03:18:07;;;;;;;11.38;5.47;;;10.90;99.90;;;;;;5147687;27;20081;-79
2022/11/16 03:20:36;;;;;;;9.45;6.25;;;11.70;99.90;;;;;;5146542;27;20046;-79
2022/11/16 03:23:09;;;;;;;7.18;5.55;;;11.90;99.90;;;;;;5146528;27;20516;-79
2022/11/16 03:25:46;;;;;;;6.20;5.00;;;11.50;99.90;;;;;;5128015;27;20130;-79
2022/11/16 03:28:24;;;;;;;7.82;4.88;;;10.90;99.90;;;;;;5110306;27;20134;-79
2022/11/16 03:31:03;;;;;;;12.57;5.95;;;11.70;99.90;;;;;;5129700;27;20035;-79
2022/11/16 03:33:38;;;;;;;10.15;5.50;;;10.90;99.90;;;;;;5146268;27;20046;-80
2022/11/16 03:36:06;;;;;;;8.88;5.45;;;11.00;99.90;;;;;;5146572;27;20049;-79
2022/11/16 03:38:36;;;;;;;9.50;5.07;;;10.90;99.90;;;;;;5147092;27;20091;-79
2022/11/16 03:41:06;;;;;;;12.10;5.85;;;11.70;99.90;;;;;;5127546;27;20054;-79
2022/11/16 03:43:33;;;;;;;6.80;4.97;;;10.90;99.90;;;;;;5128782;27;20474;-79
2022/11/16 03:45:59;;;;;;;10.02;6.32;;;11.10;99.90;;;;;;5145814;27;20038;-79
2022/11/16 03:48:33;;;;;;;7.50;5.03;;;10.80;99.90;;;;;;5147061;27;20046;-79
2022/11/16 03:50:59;;;;;;;10.63;5.72;;;11.60;99.90;;;;;;5127430;27;20042;-79
2022/11/16 03:53:25;;;;;;;8.32;5.97;;;10.80;99.90;;;;;;5110115;27;20039;-79
2022/11/16 03:55:50;;;;;;;8.40;5.95;;;10.80;99.90;;;;;;5128498;27;20039;-79
2022/11/16 03:58:17;;;;;;;10.65;5.88;;;10.70;99.90;;;;;;5145468;27;20050;-79
2022/11/16 04:00:43;;;;;;;10.90;5.68;;;11.10;99.90;;;;;;5111364;27;20035;-79
2022/11/16 04:03:09;;;;;;;12.05;5.80;;;10.80;99.90;;;;;;5110095;27;20121;-79
2022/11/16 04:25:03;;;;;;;10.65;6.38;;;10.70;99.90;;;;;;5149489;27;20557;-79
2022/11/16 04:30:14;;;;;;;9.13;5.85;;;10.70;99.90;;;;;;5150625;27;20014;-79
2022/11/16 04:38:08;;;;;;;12.77;7.00;;;10.70;99.90;;;;;;5116335;27;20486;-78
2022/11/16 04:40:34;;;;;;;11.18;7.07;;;10.70;99.90;;;;;;5149886;27;20039;-78
2022/11/16 04:43:02;;;;;;;11.23;7.80;;;10.70;99.90;;;;;;5131982;27;20035;-79
2022/11/16 04:48:14;;;;;;;10.13;6.55;;;10.70;99.90;;;;;;5150037;27;20042;-79
2022/11/16 04:50:40;;;;;;;13.77;7.97;;;11.00;99.90;;;;;;5149031;27;20039;-78
2022/11/16 04:53:07;;;;;;;10.38;7.20;;;10.70;99.90;;;;;;5149922;27;20429;-78
2022/11/16 04:55:32;;;;;;;9.77;7.22;;;10.60;99.90;;;;;;5131057;27;20496;-79
2022/11/16 04:57:58;;;;;;;10.00;7.10;;;11.10;99.90;;;;;;5130235;27;20042;-78
2022/11/16 05:00:24;;;;;;;10.30;7.35;;;10.60;99.90;;;;;;5131221;27;20043;-78
2022/11/16 05:02:50;;;;;;;11.52;7.68;;;10.60;99.90;;;;;;5130234;27;20130;-78
2022/11/16 05:05:16;;;;;;;10.77;6.93;;;10.60;99.90;;;;;;5149825;27;20102;-78
2022/11/16 05:07:42;;;;;;;11.07;6.78;;;10.60;99.90;;;;;;5112844;27;20042;-78
2022/11/16 05:10:08;;;;;;;10.52;7.25;;;11.40;99.90;;;;;;5149950;27;20043;-78
2022/11/16 05:12:34;;;;;;;13.90;7.25;;;10.60;99.90;;;;;;5149293;27;20039;-78
2022/11/16 05:15:00;;;;;;;12.23;7.28;;;10.60;99.90;;;;;;5130038;27;20490;-78
2022/11/16 05:17:27;;;;;;;10.32;7.60;;;10.60;99.90;;;;;;5131141;27;20057;-78
2022/11/16 05:22:38;;;;;;;10.10;7.93;;;10.60;99.90;;;;;;5131315;27;20098;-78
2022/11/16 05:25:05;;;;;;;11.85;7.05;;;10.60;99.90;;;;;;5147804;27;20098;-78
2022/11/16 05:27:31;;;;;;;11.65;7.18;;;10.60;99.90;;;;;;5149419;27;20046;-78
2022/11/16 05:29:57;;;;;;;15.77;8.13;;;10.60;99.90;;;;;;5148897;27;20124;-78
2022/11/16 05:32:25;;;;;;;10.10;7.68;;;11.30;99.90;;;;;;5148493;27;20031;-77
2022/11/16 05:34:50;;;;;;;11.75;7.95;;;10.60;99.90;;;;;;5113859;27;20405;-78
2022/11/16 05:37:17;;;;;;;9.82;7.68;;;10.60;99.90;;;;;;5148184;27;20129;-78
2022/11/16 05:39:44;;;;;;;11.23;7.22;;;10.60;99.90;;;;;;5130714;27;20125;-78
2022/11/16 05:42:09;;;;;;;9.68;8.02;;;10.60;99.90;;;;;;5148289;27;20066;-78
2022/11/16 05:44:35;;;;;;;13.55;7.88;;;10.60;99.90;;;;;;5130226;27;20095;-79
2022/11/16 05:47:01;;;;;;;12.65;8.35;;;10.90;99.90;;;;;;5130285;27;20039;-79
2022/11/16 05:49:27;;;;;;;12.48;7.22;;;11.30;99.90;;;;;;5148566;27;20039;-77
2022/11/16 05:51:53;;;;;;;12.88;8.48;;;10.60;99.90;;;;;;5149121;27;20042;-77
2022/11/16 05:54:23;;;;;;;9.13;7.43;;;11.30;99.90;;;;;;5148092;27;20041;-80
2022/11/16 05:56:50;;;;;;;14.23;8.77;;;11.70;99.90;;;;;;5149034;27;20115;-78
2022/11/16 05:59:18;;;;;;;13.65;8.65;;;10.60;99.90;;;;;;5148048;27;20438;-78
2022/11/16 06:01:44;;;;;;;11.60;8.65;;;10.60;99.90;;;;;;5129372;27;20119;-78
2022/11/16 06:04:10;;;;;;;12.25;8.93;;;10.60;99.90;;;;;;5129694;27;20046;-78
2022/11/16 06:06:36;;;;;;;11.10;8.38;;;10.60;99.90;;;;;;5129515;27;20401;-78
2022/11/16 06:09:02;;;;;;;13.85;8.13;;;10.60;99.90;;;;;;5129919;27;20047;-78
2022/11/16 06:11:28;;;;;;;12.82;8.45;;;10.60;99.90;;;;;;5147909;27;20053;-78
2022/11/16 06:13:54;;;;;;;13.13;8.75;;;10.70;99.90;;;;;;5129965;27;20053;-78
2022/11/16 06:16:19;;;;;;;11.40;8.77;;;10.60;99.90;;;;;;5147728;27;20118;-78
2022/11/16 06:18:46;;;;;;;13.73;9.27;;;10.80;99.90;;;;;;5148456;27;20049;-78
2022/11/16 06:21:14;;;;;;;13.50;8.23;;;10.60;99.90;;;;;;5129203;27;20039;-78
2022/11/16 06:23:39;;;;;;;13.13;9.50;;;10.60;99.90;;;;;;5128351;27;20131;-79
2022/11/16 06:26:05;;;;;;;14.82;9.48;;;10.60;99.90;;;;;;5148229;27;20078;-78
2022/11/16 06:28:31;;;;;;;12.90;9.40;;;10.90;99.90;;;;;;5147042;27;20061;-79
2022/11/16 06:30:57;;;;;;;12.35;8.50;;;10.60;99.90;;;;;;5148136;27;20035;-79
2022/11/16 06:33:23;;;;;;;13.73;9.32;;;10.70;99.90;;;;;;5128756;27;20424;-78
2022/11/16 06:35:49;;;;;;;15.18;9.75;;;10.70;99.90;;;;;;5128456;27;20035;-79
2022/11/16 06:38:17;;;;;;;13.93;9.60;;;11.10;99.90;;;;;;5111801;27;20050;-79
2022/11/16 06:40:54;;;;;;;13.65;9.05;;;10.60;99.90;;;;;;5128392;27;20054;-81
2022/11/16 06:43:20;;;;;;;14.20;9.82;;;10.60;99.90;;;;;;5129461;27;20074;-79
2022/11/16 06:45:51;;;;;;;14.63;9.68;;;10.60;99.90;;;;;;5128220;27;20043;-79
2022/11/16 06:48:17;;;;;;;12.18;9.82;;;10.60;99.90;;;;;;5129638;27;20401;-78
2022/11/16 06:50:44;;;;;;;14.88;9.73;;;10.90;99.90;;;;;;5128773;27;20113;-77
2022/11/16 06:53:09;;;;;;;13.27;10.10;;;10.60;99.90;;;;;;5129205;27;20047;-77
2022/11/16 06:55:35;;;;;;;17.27;10.40;;;10.60;99.90;;;;;;5128812;27;20378;-77
2022/11/16 06:58:01;;;;;;;14.10;10.65;;;10.60;99.90;;;;;;5128604;27;20042;-77
2022/11/16 07:00:26;;;;;;;13.13;9.63;;;10.60;99.90;;;;;;5128827;27;20481;-78
2022/11/16 07:02:53;;;;;;;15.85;9.15;;;10.60;99.90;;;;;;5128163;27;20103;-79
2022/11/16 07:05:18;;;;;;;18.02;8.73;;;10.60;99.90;;;;;;5129311;27;20743;-79
2022/11/16 07:07:44;;;;;;;10.18;8.07;;;10.70;99.90;;;;;;5128240;27;20039;-79
2022/11/16 07:10:10;;;;;;;10.93;7.93;;;10.70;99.90;;;;;;5128567;27;20123;-79
2022/11/16 07:12:36;;;;;;;10.77;7.25;;;10.70;99.90;;;;;;5128520;27;20497;-78
2022/11/16 07:15:02;;;;;;;10.05;7.65;;;10.70;99.90;;;;;;5128295;27;20047;-79
2022/11/16 07:17:27;;;;;;;11.23;6.95;;;10.70;99.90;;;;;;5129265;27;20066;-79
2022/11/16 07:19:53;;;;;;;9.88;7.15;;;10.90;99.90;;;;;;5127537;27;20047;-79
2022/11/16 07:22:18;;;;;;;7.90;6.20;;;10.90;99.90;;;;;;5129173;27;20166;-78
2022/11/16 07:24:44;;;;;;;10.82;6.72;;;10.70;99.90;;;;;;5128135;27;20043;-78
2022/11/16 07:27:10;;;;;;;6.53;5.70;;;11.00;99.90;;;;;;5128950;27;20117;-78
2022/11/16 07:29:35;;;;;;;7.20;6.18;;;10.80;99.90;;;;;;5111453;27;20473;-78
2022/11/16 07:32:01;;;;;;;10.32;6.88;;;10.70;99.90;;;;;;5128150;27;20486;-79
2022/11/16 07:34:27;;;;;;;8.68;7.05;;;10.80;99.90;;;;;;5147219;27;20417;-79
2022/11/16 07:36:52;;;;;;;6.78;6.05;;;10.70;99.90;;;;;;5110876;27;20039;-79
2022/11/16 07:39:20;;;;;;;9.38;6.75;;;10.70;99.90;;;;;;5128847;27;20046;-79
2022/11/16 07:41:46;;;;;;;7.97;6.00;;;11.50;99.90;;;;;;5127934;27;20489;-79
2022/11/16 07:44:12;;;;;;;8.07;6.50;;;10.70;99.90;;;;;;5111408;27;20039;-79
2022/11/16 07:46:37;;;;;;;8.75;6.63;;;10.80;99.90;;;;;;5111217;27;20049;-79
2022/11/16 07:49:03;;;;;;;9.85;6.65;;;11.00;99.90;;;;;;5115636;27;20121;-79
2022/11/16 07:51:31;;;;;;;9.27;6.28;;;10.70;99.90;;;;;;5115264;27;20049;-77
2022/11/16 07:53:56;;;;;;;10.13;6.65;;;10.80;99.90;;;;;;5131461;27;20497;-77
2022/11/16 07:56:23;;;;;;;11.52;6.68;;;10.80;99.90;;;;;;5115910;27;20078;-79
2022/11/16 07:58:49;;;;;;;8.75;6.05;;;10.70;99.90;;;;;;5114490;27;20053;-78
2022/11/16 08:01:17;;;;;;;10.75;5.90;;;11.10;99.90;;;;;;5098607;27;20035;-78
2022/11/16 08:03:44;;;;;;;10.05;6.43;;;10.80;99.90;;;;;;5131766;27;20091;-78
2022/11/16 08:06:25;;;;;;;9.75;5.25;;;10.80;99.90;;;;;;5131944;27;20047;-78
2022/11/16 08:08:51;;;;;;;9.77;5.95;;;10.80;99.90;;;;;;5132536;27;20046;-78
2022/11/16 08:11:17;;;;;;;8.95;6.05;;;10.80;99.90;;;;;;5131502;27;20524;-78
2022/11/16 08:13:44;;;;;;;7.65;5.65;;;10.80;99.90;;;;;;5132197;27;20133;-78
2022/11/16 08:16:12;;;;;;;9.60;6.03;;;10.80;99.90;;;;;;5131918;27;20126;-78
2022/11/16 08:18:39;;;;;;;9.85;6.43;;;10.80;99.90;;;;;;5131598;27;20046;-78
2022/11/16 08:21:07;;;;;;;11.30;6.50;;;10.80;99.90;;;;;;5131623;27;20058;-78
2022/11/16 08:23:33;;;;;;;10.25;7.18;;;10.80;99.90;;;;;;5131546;27;20073;-78
2022/11/16 08:26:09;;;;;;;11.40;7.20;;;10.80;99.90;;;;;;5131769;27;20125;-79
2022/11/16 08:28:36;;;;;;;12.43;8.65;;;10.80;99.90;;;;;;5130974;27;20465;-78
2022/11/16 08:31:14;;;;;;;9.77;7.65;;;10.80;99.90;;;;;;5131946;27;20058;-78
2022/11/16 08:33:40;;;;;;;10.13;8.52;;;10.80;99.90;;;;;;5131241;27;20051;-78
2022/11/16 08:36:07;;;;;;;10.68;8.35;;;10.70;99.90;;;;;;5130945;27;20054;-78
2022/11/16 08:38:33;;;;;;;12.45;8.30;;;10.80;99.90;;;;;;5131539;27;20047;-78
2022/11/16 08:40:59;;;;;;;11.25;8.65;;;10.80;99.90;;;;;;5131288;27;20462;-78
2022/11/16 08:43:25;;;;;;;11.85;8.10;;;10.90;99.90;;;;;;5114398;27;20608;-78
2022/11/16 08:45:54;;;;;;;11.00;8.10;;;10.80;99.90;;;;;;5131045;27;20125;-78
2022/11/16 08:48:20;;;;;;;12.73;9.02;;;10.80;99.90;;;;;;5098213;27;20050;-78
2022/11/16 08:50:46;;;;;;;8.80;7.80;;;10.80;99.90;;;;;;5113993;27;20050;-78
2022/11/16 08:53:14;;;;;;;9.63;7.88;;;10.80;99.90;;;;;;5114904;27;20367;-78
2022/11/16 08:55:41;;;;;;;11.85;8.00;;;10.80;99.90;;;;;;5131624;27;20043;-78
2022/11/16 08:58:06;;;;;;;13.35;9.75;;;10.80;99.90;;;;;;5113053;27;20038;-78
2022/11/16 09:00:32;;;;;;;8.98;7.85;;;10.80;99.90;;;;;;5130691;27;20046;-78
2022/11/16 09:02:58;;;;;;;11.07;8.80;;;10.80;99.90;;;;;;5130128;27;20049;-78
2022/11/16 09:05:23;;;;;;;13.63;7.70;;;10.80;99.90;;;;;;5114227;27;20035;-78
2022/11/16 09:07:49;;;;;;;10.85;8.15;;;11.00;99.90;;;;;;5131165;27;20434;-78
2022/11/16 09:10:17;;;;;;;11.20;8.43;;;10.80;99.90;;;;;;5114157;27;20544;-78
2022/11/16 09:12:43;;;;;;;11.30;8.73;;;10.80;99.90;;;;;;5131433;27;20129;-78
2022/11/16 09:15:09;;;;;;;11.23;9.18;;;10.80;99.90;;;;;;5113367;27;20497;-78
2022/11/16 09:17:35;;;;;;;9.77;7.97;;;10.80;99.90;;;;;;5130592;27;20118;-78
2022/11/16 09:20:00;;;;;;;10.88;8.65;;;11.40;99.90;;;;;;5096033;27;20053;-78
2022/11/16 09:22:26;;;;;;;13.50;8.55;;;10.90;99.90;;;;;;5114036;27;20123;-78
2022/11/16 09:24:51;;;;;;;11.48;8.73;;;10.90;99.90;;;;;;5112926;27;20547;-78
2022/11/16 09:27:17;;;;;;;11.43;9.07;;;10.90;99.90;;;;;;5148891;27;20089;-78
2022/11/16 09:29:43;;;;;;;10.30;8.60;;;11.50;99.90;;;;;;5130176;27;20051;-78
2022/11/16 09:32:08;;;;;;;10.27;8.40;;;10.90;99.90;;;;;;5130092;27;20169;-78
2022/11/16 09:34:35;;;;;;;12.85;8.93;;;11.00;99.90;;;;;;5130744;27;20099;-78
2022/11/16 09:37:01;;;;;;;9.73;7.57;;;11.00;99.90;;;;;;5130423;27;20499;-78
2022/11/16 09:39:30;;;;;;;12.07;7.88;;;11.10;99.90;;;;;;5131016;27;20405;-78
2022/11/16 09:42:02;;;;;;;9.38;7.53;;;11.10;99.90;;;;;;5130156;27;20404;-78
2022/11/16 09:44:28;;;;;;;9.23;5.83;;;11.10;99.90;;;;;;5130187;27;20047;-78
2022/11/16 09:46:56;;;;;;;11.88;7.35;;;11.10;99.90;;;;;;5113125;27;20065;-78
2022/11/16 09:49:27;;;;;;;11.27;7.68;;;11.60;99.90;;;;;;5112742;27;20492;-78
2022/11/16 09:51:59;;;;;;;10.23;6.93;;;11.10;99.90;;;;;;5129961;27;20102;-78
2022/11/16 09:54:28;;;;;;;7.93;6.43;;;11.10;99.90;;;;;;5148122;27;20042;-78
2022/11/16 09:56:58;;;;;;;8.05;7.25;;;11.90;99.90;;;;;;5130016;27;20462;-78
2022/11/16 09:59:28;;;;;;;8.50;7.13;;;11.20;99.90;;;;;;5129469;27;20053;-78
2022/11/16 10:02:00;;;;;;;9.77;8.13;;;11.50;99.90;;;;;;5147866;27;20093;-78
2022/11/16 10:04:42;;;;;;;12.10;8.17;;;11.20;99.90;;;;;;5130021;27;20455;-78
2022/11/16 10:07:15;;;;;;;10.38;8.63;;;11.30;99.90;;;;;;5111837;27;20042;-78
2022/11/16 10:09:41;;;;;;;12.43;8.63;;;11.30;99.90;;;;;;5129911;27;20409;-78
2022/11/16 10:12:20;;;;;;;13.40;8.82;;;11.40;99.90;;;;;;5112329;27;20042;-79
2022/11/16 10:15:03;;;;;;;9.93;8.82;;;11.50;99.90;;;;;;5129404;27;20059;-78
2022/11/16 10:18:06;;;;;;;12.50;9.60;;;11.50;99.90;;;;;;5129977;27;20042;-78
2022/11/16 10:20:40;;;;;;;11.40;8.57;;;11.60;99.90;;;;;;5128741;27;20057;-78
2022/11/16 10:23:23;;;;;;;15.60;10.43;;;11.60;99.90;;;;;;5112320;27;20413;-79
2022/11/16 10:25:57;;;;;;;10.77;9.13;;;11.60;99.90;;;;;;5129594;27;20462;-78
2022/11/16 10:28:47;;;;;;;16.05;10.40;;;11.70;99.90;;;;;;5112317;27;20031;-79
2022/11/16 10:31:21;;;;;;;11.93;9.55;;;11.70;99.90;;;;;;5129145;27;20133;-79
2022/11/16 10:33:50;;;;;;;11.45;9.43;;;11.70;99.90;;;;;;5128815;27;20084;-78
2022/11/16 10:36:17;;;;;;;15.68;10.25;;;11.80;99.90;;;;;;5128654;27;20047;-77
2022/11/16 10:38:43;;;;;;;12.48;9.68;;;12.40;99.90;;;;;;5128983;27;20043;-78
2022/11/16 10:41:27;;;;;;;13.65;9.60;;;11.90;99.90;;;;;;5128378;27;20078;-78
2022/11/16 10:43:56;;;;;;;14.27;9.20;;;12.00;99.90;;;;;;5111557;27;20125;-77
2022/11/16 10:46:37;;;;;;;13.82;9.32;;;12.10;99.90;;;;;;5111490;27;20112;-77
2022/11/16 10:49:13;;;;;;;12.13;9.60;;;12.00;99.90;;;;;;5128484;27;20039;-76
2022/11/16 10:51:39;;;;;;;9.70;8.50;;;12.00;99.90;;;;;;5111421;27;20041;-76
2022/11/16 10:54:16;;;;;;;12.73;8.82;;;11.90;99.90;;;;;;5111171;27;20042;-79
2022/11/16 10:56:45;;;;;;;14.90;9.70;;;12.00;99.90;;;;;;5129475;27;20073;-78
2022/11/16 10:59:13;;;;;;;11.75;8.98;;;12.10;99.90;;;;;;5128263;27;20047;-78
2022/11/16 11:01:46;;;;;;;15.05;9.18;;;12.10;99.90;;;;;;5111376;27;20053;-78
2022/11/16 11:04:23;;;;;;;11.60;8.25;;;12.10;99.90;;;;;;5128588;27;20055;-78
2022/11/16 11:06:50;;;;;;;16.70;7.30;;;12.20;99.90;;;;;;5128396;27;20034;-78
2022/11/16 11:09:26;;;;;;;12.30;7.22;;;12.20;99.90;;;;;;5128942;27;20170;-78
2022/11/16 11:14:57;;;;;;;15.23;6.93;;;12.30;99.90;;;;;;5128057;27;20520;-78
2022/11/16 11:17:23;;;;;;;11.73;6.88;;;12.30;99.90;;;;;;5128356;27;20043;-78
2022/11/16 11:19:57;;;;;;;12.07;7.25;;;12.40;99.90;;;;;;5110839;27;20097;-78
2022/11/16 11:22:23;;;;;;;11.38;6.70;;;12.60;99.90;;;;;;5128240;27;20042;-78
2022/11/16 11:24:49;;;;;;;14.80;8.43;;;12.60;99.90;;;;;;5127263;27;20429;-78
2022/11/16 11:27:22;;;;;;;11.25;7.65;;;12.80;99.90;;;;;;5128569;27;20409;-78
2022/11/16 11:29:53;;;;;;;;;;;12.50;99.90;;;;;;5128904;27;20185;-78
2022/11/16 11:32:19;;;;;;;12.63;6.25;;;12.50;99.90;;;;;;5110861;27;19923;-78
2022/11/16 11:34:49;;;;;;;11.32;6.20;;;12.50;99.90;;;;;;5128383;27;20049;-78
2022/11/16 11:37:21;;;;;;;16.20;7.03;;;12.50;99.90;;;;;;5127725;27;20031;-79
2022/11/16 11:39:46;;;;;;;16.13;6.35;;;12.40;99.90;;;;;;5127976;27;20046;-79
2022/11/16 11:42:12;;;;;;;10.30;6.50;;;12.40;99.90;;;;;;5110592;27;20057;-79
2022/11/16 11:44:57;;;;;;;17.73;7.03;;;12.40;99.90;;;;;;5127802;27;20049;-78
2022/11/16 11:47:29;;;;;;;8.27;5.30;;;12.50;99.90;;;;;;5127984;27;20050;-79
2022/11/16 11:50:18;;;;;;;10.50;5.10;;;12.30;99.90;;;;;;5127788;27;20421;-78
2022/11/16 11:53:10;;;;;;;13.63;5.00;;;12.30;99.90;;;;;;5128061;27;20061;-78
2022/11/16 11:55:36;;;;;;;13.25;5.75;;;12.20;99.90;;;;;;5127693;27;20095;-78
2022/11/16 11:58:04;;;;;;;13.65;5.10;;;12.20;99.90;;;;;;5128329;27;20043;-78
2022/11/16 12:00:51;;;;;;;9.68;5.22;;;12.20;99.90;;;;;;5127707;27;20042;-78
2022/11/16 12:03:25;;;;;;;9.82;6.22;;;12.50;99.90;;;;;;5127952;27;20370;-78
2022/11/16 12:06:08;;;;;;;15.25;4.80;;;12.20;99.90;;;;;;5110897;27;20044;-78
2022/11/16 12:09:12;;;;;;;10.35;5.13;;;12.10;99.90;;;;;;5127806;27;20547;-78
2022/11/16 12:12:15;;;;;;;15.32;5.75;;;12.20;99.90;;;;;;5127466;27;20042;-78
2022/11/16 12:14:48;;;;;;;7.70;4.07;;;12.40;99.90;;;;;;5127665;27;20618;-79
2022/11/16 12:17:48;;;;;;;10.48;5.25;;;12.60;99.90;;;;;;5127715;27;20374;-79
2022/11/16 12:20:36;;;;;;;9.27;5.05;;;12.70;99.90;;;;;;5126813;27;20043;-79
2022/11/16 12:23:22;;;;;;;9.25;4.50;;;12.80;99.90;;;;;;5128005;27;20057;-78
2022/11/16 12:25:57;;;;;;;8.98;4.63;;;12.80;99.90;;;;;;5110230;27;20113;-80
2022/11/16 12:28:36;;;;;;;13.95;4.03;;;12.80;99.90;;;;;;5110015;27;20039;-79
2022/11/16 12:31:34;;;;;;;11.10;4.55;;;12.80;99.90;;;;;;5127726;27;20134;-79
2022/11/16 12:34:26;;;;;;;11.77;4.00;;;12.80;99.90;;;;;;5113478;27;20467;-79
2022/11/16 12:37:00;;;;;;;9.35;4.20;;;12.90;99.90;;;;;;5150204;27;20400;-80
2022/11/16 12:39:43;;;;;;;18.08;4.35;;;13.00;99.90;;;;;;5131650;27;20053;-79
2022/11/16 12:42:17;;;;;;;6.95;2.95;;;13.20;99.90;;;;;;5130965;27;20043;-80
2022/11/16 12:45:02;;;;;;;5.40;2.72;;;13.30;99.90;;;;;;5113987;27;20042;-79
2022/11/16 12:48:02;;;;;;;6.40;2.33;;;13.40;99.90;;;;;;5113658;27;20046;-79
2022/11/16 12:50:33;;;;;;;6.45;2.20;;;13.50;99.90;;;;;;5130228;27;20082;-79
2022/11/16 12:53:27;;;;;;;5.28;1.88;;;13.40;99.90;;;;;;5114023;27;20398;-80
2022/11/16 12:56:09;;;;;;;12.10;2.17;;;13.40;99.90;;;;;;5130660;27;20127;-80
2022/11/16 12:58:52;;;;;;;5.85;1.80;;;13.30;99.90;;;;;;5130469;27;20050;-80
2022/11/16 13:01:25;;;;;;;11.05;2.40;;;13.20;99.90;;;;;;5130836;27;20042;-78
2022/11/16 13:04:02;;;;;;;9.32;1.90;;;13.10;99.90;;;;;;5130776;27;20043;-79
2022/11/16 13:06:37;;;;;;;6.82;1.98;;;13.00;99.90;;;;;;5113451;27;20061;-77
2022/11/16 13:09:13;;;;;;;6.95;2.15;;;13.00;99.90;;;;;;5130531;27;20046;-78
2022/11/16 13:11:56;;;;;;;5.82;1.77;;;13.00;99.90;;;;;;5130430;27;20046;-77
2022/11/16 13:14:31;;;;;;;12.90;1.83;;;12.90;99.90;;;;;;5130876;27;20272;-78
2022/11/16 13:16:59;;;;;;;3.85;1.00;;;12.80;99.90;;;;;;5130483;27;20056;-77
2022/11/16 13:19:25;;;;;;;7.10;1.25;;;12.80;99.90;;;;;;5130397;27;20043;-77
2022/11/16 13:22:04;;;;;;;8.32;1.25;;;12.70;99.90;;;;;;5130065;27;20039;-78
2022/11/16 13:24:48;;;;;;;8.18;1.27;;;12.70;99.90;;;;;;5112708;27;20298;-78
2022/11/16 13:27:20;;;;;;;11.32;1.63;;;12.70;99.90;;;;;;5130070;27;20515;-79
2022/11/16 13:30:05;;;;;;;8.77;1.23;;;12.60;99.90;;;;;;5130592;27;20045;-80
2022/11/16 13:32:55;;;;;;;4.18;1.23;;;12.50;99.90;;;;;;5130516;27;20378;-78
2022/11/16 13:35:22;;;;;;;11.20;1.85;;;12.50;99.90;;;;;;5130410;27;20048;-79
2022/11/16 13:37:50;;;;;;;8.40;1.40;;;12.40;99.90;;;;;;5112860;27;20042;-80